sensor_id;sensor_type;location;lat;lon;timestamp;P1;durP1;ratioP1;P2;durP2;ratioP2
62580;SDS011;48640;48.770;9.148;2023-03-01T00:01:16;18.88;;;11.93;;
62580;SDS011;48640;48.770;9.148;2023-03-01T00:03:45;20.58;;;11.88;;
62580;SDS011;48640;48.770;9.148;2023-03-01T00:06:12;19.88;;;11.40;;
62580;SDS011;48640;48.770;9.148;2023-03-01T00:08:39;20.58;;;12.00;;
62580;SDS011;48640;48.770;9.148;2023-03-01T00:11:07;19.55;;;11.82;;
62580;SDS011;48640;48.770;9.148;2023-03-01T00:13:36;20.45;;;11.32;;
62580;SDS011;48640;48.770;9.148;2023-03-01T00:16:05;17.88;;;11.88;;
62580;SDS011;48640;48.770;9.148;2023-03-01T00:18:33;20.42;;;12.15;;
62580;SDS011;48640;48.770;9.148;2023-03-01T00:21:00;18.83;;;10.80;;
62580;SDS011;48640;48.770;9.148;2023-03-01T00:23:27;22.05;;;11.60;;
62580;SDS011;48640;48.770;9.148;2023-03-01T00:25:54;20.50;;;11.82;;
62580;SDS011;48640;48.770;9.148;2023-03-01T00:28:21;21.42;;;11.98;;
62580;SDS011;48640;48.770;9.148;2023-03-01T00:30:48;17.45;;;11.63;;
62580;SDS011;48640;48.770;9.148;2023-03-01T00:33:16;19.48;;;12.43;;
62580;SDS011;48640;48.770;9.148;2023-03-01T00:35:43;22.17;;;12.05;;
62580;SDS011;48640;48.770;9.148;2023-03-01T00:38:10;20.27;;;12.43;;
62580;SDS011;48640;48.770;9.148;2023-03-01T00:40:37;21.33;;;12.38;;
62580;SDS011;48640;48.770;9.148;2023-03-01T00:43:04;19.70;;;12.32;;
62580;SDS011;48640;48.770;9.148;2023-03-01T00:45:30;18.55;;;11.50;;
62580;SDS011;48640;48.770;9.148;2023-03-01T00:47:58;22.25;;;11.70;;
62580;SDS011;48640;48.770;9.148;2023-03-01T00:50:27;18.83;;;11.80;;
62580;SDS011;48640;48.770;9.148;2023-03-01T00:52:54;19.98;;;11.95;;
62580;SDS011;48640;48.770;9.148;2023-03-01T00:55:22;18.33;;;11.32;;
62580;SDS011;48640;48.770;9.148;2023-03-01T00:57:49;18.58;;;11.30;;
62580;SDS011;48640;48.770;9.148;2023-03-01T01:00:16;20.55;;;11.13;;
62580;SDS011;48640;48.770;9.148;2023-03-01T01:02:43;17.58;;;10.98;;
62580;SDS011;48640;48.770;9.148;2023-03-01T01:05:10;21.90;;;12.10;;
62580;SDS011;48640;48.770;9.148;2023-03-01T01:07:39;20.25;;;11.27;;
62580;SDS011;48640;48.770;9.148;2023-03-01T01:10:06;19.27;;;12.43;;
62580;SDS011;48640;48.770;9.148;2023-03-01T01:12:33;16.30;;;10.30;;
62580;SDS011;48640;48.770;9.148;2023-03-01T01:15:00;17.98;;;10.90;;
62580;SDS011;48640;48.770;9.148;2023-03-01T01:17:27;21.13;;;11.93;;
62580;SDS011;48640;48.770;9.148;2023-03-01T01:19:53;19.92;;;12.82;;
62580;SDS011;48640;48.770;9.148;2023-03-01T01:22:20;19.80;;;11.27;;
62580;SDS011;48640;48.770;9.148;2023-03-01T01:24:48;19.17;;;11.20;;
62580;SDS011;48640;48.770;9.148;2023-03-01T01:27:15;20.83;;;11.80;;
62580;SDS011;48640;48.770;9.148;2023-03-01T01:29:42;19.40;;;11.23;;
62580;SDS011;48640;48.770;9.148;2023-03-01T01:32:09;19.35;;;12.23;;
62580;SDS011;48640;48.770;9.148;2023-03-01T01:34:35;18.48;;;11.55;;
62580;SDS011;48640;48.770;9.148;2023-03-01T01:37:02;19.10;;;12.20;;
62580;SDS011;48640;48.770;9.148;2023-03-01T01:39:32;17.60;;;11.27;;
62580;SDS011;48640;48.770;9.148;2023-03-01T01:42:01;21.83;;;11.63;;
62580;SDS011;48640;48.770;9.148;2023-03-01T01:44:28;22.42;;;11.70;;
62580;SDS011;48640;48.770;9.148;2023-03-01T01:46:56;23.02;;;13.07;;
62580;SDS011;48640;48.770;9.148;2023-03-01T01:51:56;22.15;;;12.45;;
62580;SDS011;48640;48.770;9.148;2023-03-01T01:54:29;20.13;;;12.02;;
62580;SDS011;48640;48.770;9.148;2023-03-01T01:57:06;18.70;;;11.27;;
62580;SDS011;48640;48.770;9.148;2023-03-01T01:59:37;21.90;;;12.27;;
62580;SDS011;48640;48.770;9.148;2023-03-01T02:02:05;19.50;;;11.47;;
62580;SDS011;48640;48.770;9.148;2023-03-01T02:04:32;20.13;;;12.40;;
62580;SDS011;48640;48.770;9.148;2023-03-01T02:07:00;23.35;;;12.50;;
62580;SDS011;48640;48.770;9.148;2023-03-01T02:09:29;22.63;;;12.68;;
62580;SDS011;48640;48.770;9.148;2023-03-01T02:11:57;20.20;;;12.40;;
62580;SDS011;48640;48.770;9.148;2023-03-01T02:14:26;21.27;;;12.73;;
62580;SDS011;48640;48.770;9.148;2023-03-01T02:16:53;21.67;;;11.93;;
62580;SDS011;48640;48.770;9.148;2023-03-01T02:19:23;20.45;;;11.50;;
62580;SDS011;48640;48.770;9.148;2023-03-01T02:22:02;18.77;;;11.43;;
62580;SDS011;48640;48.770;9.148;2023-03-01T02:24:38;17.05;;;11.85;;
62580;SDS011;48640;48.770;9.148;2023-03-01T02:27:10;20.58;;;12.25;;
62580;SDS011;48640;48.770;9.148;2023-03-01T02:29:39;18.98;;;13.27;;
62580;SDS011;48640;48.770;9.148;2023-03-01T02:32:09;20.90;;;12.52;;
62580;SDS011;48640;48.770;9.148;2023-03-01T02:34:37;18.02;;;10.75;;
62580;SDS011;48640;48.770;9.148;2023-03-01T02:37:08;22.95;;;12.23;;
62580;SDS011;48640;48.770;9.148;2023-03-01T02:39:38;23.33;;;12.80;;
62580;SDS011;48640;48.770;9.148;2023-03-01T02:44:38;18.08;;;11.38;;
62580;SDS011;48640;48.770;9.148;2023-03-01T02:47:05;21.35;;;11.52;;
62580;SDS011;48640;48.770;9.148;2023-03-01T02:49:33;23.48;;;12.82;;
62580;SDS011;48640;48.770;9.148;2023-03-01T02:52:04;25.90;;;12.38;;
62580;SDS011;48640;48.770;9.148;2023-03-01T02:57:10;19.60;;;12.75;;
62580;SDS011;48640;48.770;9.148;2023-03-01T02:59:39;21.23;;;12.43;;
62580;SDS011;48640;48.770;9.148;2023-03-01T03:02:07;20.83;;;12.20;;
62580;SDS011;48640;48.770;9.148;2023-03-01T03:04:45;20.98;;;12.82;;
62580;SDS011;48640;48.770;9.148;2023-03-01T03:07:12;22.25;;;12.40;;
62580;SDS011;48640;48.770;9.148;2023-03-01T03:09:39;22.38;;;13.00;;
62580;SDS011;48640;48.770;9.148;2023-03-01T03:12:05;21.80;;;12.60;;
62580;SDS011;48640;48.770;9.148;2023-03-01T03:14:32;22.02;;;12.23;;
62580;SDS011;48640;48.770;9.148;2023-03-01T03:17:01;22.85;;;12.90;;
62580;SDS011;48640;48.770;9.148;2023-03-01T03:19:31;20.80;;;12.70;;
62580;SDS011;48640;48.770;9.148;2023-03-01T03:21:58;22.38;;;13.10;;
62580;SDS011;48640;48.770;9.148;2023-03-01T03:24:25;20.85;;;13.95;;
62580;SDS011;48640;48.770;9.148;2023-03-01T03:26:52;20.15;;;12.63;;
62580;SDS011;48640;48.770;9.148;2023-03-01T03:29:19;21.00;;;13.32;;
62580;SDS011;48640;48.770;9.148;2023-03-01T03:31:45;22.80;;;12.65;;
62580;SDS011;48640;48.770;9.148;2023-03-01T03:34:13;20.67;;;13.02;;
62580;SDS011;48640;48.770;9.148;2023-03-01T03:39:09;24.52;;;14.77;;
62580;SDS011;48640;48.770;9.148;2023-03-01T03:41:36;21.55;;;11.88;;
62580;SDS011;48640;48.770;9.148;2023-03-01T03:44:03;24.77;;;12.95;;
62580;SDS011;48640;48.770;9.148;2023-03-01T03:46:30;25.35;;;13.52;;
62580;SDS011;48640;48.770;9.148;2023-03-01T03:48:57;21.75;;;12.68;;
62580;SDS011;48640;48.770;9.148;2023-03-01T03:51:25;21.60;;;12.80;;
62580;SDS011;48640;48.770;9.148;2023-03-01T03:53:52;23.67;;;13.75;;
62580;SDS011;48640;48.770;9.148;2023-03-01T03:56:19;27.30;;;14.32;;
62580;SDS011;48640;48.770;9.148;2023-03-01T03:58:45;24.90;;;15.40;;
62580;SDS011;48640;48.770;9.148;2023-03-01T04:01:12;22.85;;;13.48;;
62580;SDS011;48640;48.770;9.148;2023-03-01T04:03:39;24.17;;;13.20;;
62580;SDS011;48640;48.770;9.148;2023-03-01T04:06:06;22.13;;;12.13;;
62580;SDS011;48640;48.770;9.148;2023-03-01T04:08:34;22.65;;;13.82;;
62580;SDS011;48640;48.770;9.148;2023-03-01T04:11:02;21.83;;;13.00;;
62580;SDS011;48640;48.770;9.148;2023-03-01T04:13:44;24.17;;;12.73;;
62580;SDS011;48640;48.770;9.148;2023-03-01T04:16:10;24.45;;;13.35;;
62580;SDS011;48640;48.770;9.148;2023-03-01T04:18:37;27.48;;;14.10;;
62580;SDS011;48640;48.770;9.148;2023-03-01T04:21:04;25.48;;;13.75;;
62580;SDS011;48640;48.770;9.148;2023-03-01T04:23:31;22.50;;;13.68;;
62580;SDS011;48640;48.770;9.148;2023-03-01T04:25:59;23.63;;;13.80;;
62580;SDS011;48640;48.770;9.148;2023-03-01T04:28:26;22.98;;;12.98;;
62580;SDS011;48640;48.770;9.148;2023-03-01T04:30:56;20.50;;;12.15;;
62580;SDS011;48640;48.770;9.148;2023-03-01T04:33:24;20.17;;;13.43;;
62580;SDS011;48640;48.770;9.148;2023-03-01T04:35:51;20.85;;;12.70;;
62580;SDS011;48640;48.770;9.148;2023-03-01T04:38:18;21.98;;;13.18;;
62580;SDS011;48640;48.770;9.148;2023-03-01T04:40:47;24.42;;;14.15;;
62580;SDS011;48640;48.770;9.148;2023-03-01T04:43:15;25.17;;;13.50;;
62580;SDS011;48640;48.770;9.148;2023-03-01T04:45:42;24.33;;;13.68;;
62580;SDS011;48640;48.770;9.148;2023-03-01T04:48:10;19.63;;;12.63;;
62580;SDS011;48640;48.770;9.148;2023-03-01T04:50:36;23.13;;;13.27;;
62580;SDS011;48640;48.770;9.148;2023-03-01T04:53:03;21.65;;;12.65;;
62580;SDS011;48640;48.770;9.148;2023-03-01T04:55:30;19.80;;;11.80;;
62580;SDS011;48640;48.770;9.148;2023-03-01T04:57:57;25.27;;;14.32;;
62580;SDS011;48640;48.770;9.148;2023-03-01T05:00:25;22.42;;;14.40;;
62580;SDS011;48640;48.770;9.148;2023-03-01T05:02:53;21.63;;;13.10;;
62580;SDS011;48640;48.770;9.148;2023-03-01T05:05:21;23.10;;;13.70;;
62580;SDS011;48640;48.770;9.148;2023-03-01T05:10:19;20.30;;;12.57;;
62580;SDS011;48640;48.770;9.148;2023-03-01T05:12:46;24.13;;;14.85;;
62580;SDS011;48640;48.770;9.148;2023-03-01T05:15:13;20.73;;;12.85;;
62580;SDS011;48640;48.770;9.148;2023-03-01T05:17:41;23.88;;;13.48;;
62580;SDS011;48640;48.770;9.148;2023-03-01T05:20:08;20.65;;;13.82;;
62580;SDS011;48640;48.770;9.148;2023-03-01T05:22:36;21.73;;;13.13;;
62580;SDS011;48640;48.770;9.148;2023-03-01T05:25:03;24.83;;;13.23;;
62580;SDS011;48640;48.770;9.148;2023-03-01T05:27:31;23.65;;;13.70;;
62580;SDS011;48640;48.770;9.148;2023-03-01T05:29:58;21.90;;;13.20;;
62580;SDS011;48640;48.770;9.148;2023-03-01T05:32:38;21.85;;;13.52;;
62580;SDS011;48640;48.770;9.148;2023-03-01T05:35:08;21.30;;;13.88;;
62580;SDS011;48640;48.770;9.148;2023-03-01T05:37:38;23.27;;;13.43;;
62580;SDS011;48640;48.770;9.148;2023-03-01T05:40:05;22.67;;;14.13;;
62580;SDS011;48640;48.770;9.148;2023-03-01T05:42:40;20.55;;;12.25;;
62580;SDS011;48640;48.770;9.148;2023-03-01T05:45:10;25.70;;;14.45;;
62580;SDS011;48640;48.770;9.148;2023-03-01T05:47:38;23.52;;;13.30;;
62580;SDS011;48640;48.770;9.148;2023-03-01T05:50:10;22.75;;;14.25;;
62580;SDS011;48640;48.770;9.148;2023-03-01T05:52:39;23.35;;;13.73;;
62580;SDS011;48640;48.770;9.148;2023-03-01T05:55:06;25.45;;;14.68;;
62580;SDS011;48640;48.770;9.148;2023-03-01T05:57:34;22.92;;;13.95;;
62580;SDS011;48640;48.770;9.148;2023-03-01T06:00:01;22.75;;;13.70;;
62580;SDS011;48640;48.770;9.148;2023-03-01T06:02:27;24.52;;;13.82;;
62580;SDS011;48640;48.770;9.148;2023-03-01T06:04:56;24.60;;;14.80;;
62580;SDS011;48640;48.770;9.148;2023-03-01T06:07:23;21.67;;;13.52;;
62580;SDS011;48640;48.770;9.148;2023-03-01T06:09:50;24.17;;;13.85;;
62580;SDS011;48640;48.770;9.148;2023-03-01T06:12:16;23.83;;;14.32;;
62580;SDS011;48640;48.770;9.148;2023-03-01T06:14:44;22.58;;;14.55;;
62580;SDS011;48640;48.770;9.148;2023-03-01T06:17:12;19.45;;;12.85;;
62580;SDS011;48640;48.770;9.148;2023-03-01T06:19:39;24.30;;;14.10;;
62580;SDS011;48640;48.770;9.148;2023-03-01T06:22:07;24.73;;;14.82;;
62580;SDS011;48640;48.770;9.148;2023-03-01T06:24:34;22.02;;;14.20;;
62580;SDS011;48640;48.770;9.148;2023-03-01T06:27:01;24.23;;;13.40;;
62580;SDS011;48640;48.770;9.148;2023-03-01T06:29:28;24.58;;;14.63;;
62580;SDS011;48640;48.770;9.148;2023-03-01T06:31:54;23.42;;;13.95;;
62580;SDS011;48640;48.770;9.148;2023-03-01T06:34:21;22.63;;;13.95;;
62580;SDS011;48640;48.770;9.148;2023-03-01T06:36:48;24.83;;;15.88;;
62580;SDS011;48640;48.770;9.148;2023-03-01T06:39:16;28.30;;;15.18;;
62580;SDS011;48640;48.770;9.148;2023-03-01T06:41:43;24.65;;;14.38;;
62580;SDS011;48640;48.770;9.148;2023-03-01T06:44:10;25.80;;;15.40;;
62580;SDS011;48640;48.770;9.148;2023-03-01T06:46:36;25.00;;;14.85;;
62580;SDS011;48640;48.770;9.148;2023-03-01T06:49:04;25.67;;;16.10;;
62580;SDS011;48640;48.770;9.148;2023-03-01T06:51:34;22.25;;;14.35;;
62580;SDS011;48640;48.770;9.148;2023-03-01T06:54:01;25.55;;;14.90;;
62580;SDS011;48640;48.770;9.148;2023-03-01T06:56:30;23.48;;;13.20;;
62580;SDS011;48640;48.770;9.148;2023-03-01T06:58:57;27.77;;;15.48;;
62580;SDS011;48640;48.770;9.148;2023-03-01T07:01:24;26.25;;;15.85;;
62580;SDS011;48640;48.770;9.148;2023-03-01T07:03:50;26.08;;;15.95;;
62580;SDS011;48640;48.770;9.148;2023-03-01T07:06:17;23.15;;;14.10;;
62580;SDS011;48640;48.770;9.148;2023-03-01T07:08:44;27.25;;;15.32;;
62580;SDS011;48640;48.770;9.148;2023-03-01T07:11:11;26.55;;;14.82;;
62580;SDS011;48640;48.770;9.148;2023-03-01T07:13:39;23.42;;;14.63;;
62580;SDS011;48640;48.770;9.148;2023-03-01T07:16:06;26.85;;;14.80;;
62580;SDS011;48640;48.770;9.148;2023-03-01T07:18:33;24.50;;;14.90;;
62580;SDS011;48640;48.770;9.148;2023-03-01T07:21:03;28.92;;;15.80;;
62580;SDS011;48640;48.770;9.148;2023-03-01T07:23:30;25.05;;;15.52;;
62580;SDS011;48640;48.770;9.148;2023-03-01T07:25:57;26.95;;;15.05;;
62580;SDS011;48640;48.770;9.148;2023-03-01T07:28:25;28.08;;;15.85;;
62580;SDS011;48640;48.770;9.148;2023-03-01T07:30:54;25.00;;;15.77;;
62580;SDS011;48640;48.770;9.148;2023-03-01T07:33:21;24.75;;;14.90;;
62580;SDS011;48640;48.770;9.148;2023-03-01T07:35:48;24.75;;;15.00;;
62580;SDS011;48640;48.770;9.148;2023-03-01T07:38:14;29.90;;;16.60;;
62580;SDS011;48640;48.770;9.148;2023-03-01T07:40:41;26.50;;;16.38;;
62580;SDS011;48640;48.770;9.148;2023-03-01T07:43:08;33.80;;;15.77;;
62580;SDS011;48640;48.770;9.148;2023-03-01T07:45:35;41.72;;;19.08;;
62580;SDS011;48640;48.770;9.148;2023-03-01T07:48:03;28.70;;;16.48;;
62580;SDS011;48640;48.770;9.148;2023-03-01T07:50:30;28.27;;;15.48;;
62580;SDS011;48640;48.770;9.148;2023-03-01T07:52:57;29.83;;;16.75;;
62580;SDS011;48640;48.770;9.148;2023-03-01T07:55:24;30.40;;;17.85;;
62580;SDS011;48640;48.770;9.148;2023-03-01T07:57:50;28.75;;;15.57;;
62580;SDS011;48640;48.770;9.148;2023-03-01T08:00:17;27.63;;;14.35;;
62580;SDS011;48640;48.770;9.148;2023-03-01T08:02:45;29.08;;;16.15;;
62580;SDS011;48640;48.770;9.148;2023-03-01T08:05:13;27.75;;;17.17;;
62580;SDS011;48640;48.770;9.148;2023-03-01T08:07:40;28.63;;;16.98;;
62580;SDS011;48640;48.770;9.148;2023-03-01T08:10:07;28.85;;;16.73;;
62580;SDS011;48640;48.770;9.148;2023-03-01T08:12:34;27.63;;;15.43;;
62580;SDS011;48640;48.770;9.148;2023-03-01T08:15:01;31.90;;;17.27;;
62580;SDS011;48640;48.770;9.148;2023-03-01T08:17:28;24.90;;;13.98;;
62580;SDS011;48640;48.770;9.148;2023-03-01T08:19:55;30.38;;;16.08;;
62580;SDS011;48640;48.770;9.148;2023-03-01T08:22:23;27.85;;;16.73;;
62580;SDS011;48640;48.770;9.148;2023-03-01T08:24:50;25.55;;;15.25;;
62580;SDS011;48640;48.770;9.148;2023-03-01T08:27:17;30.40;;;16.85;;
62580;SDS011;48640;48.770;9.148;2023-03-01T08:29:43;28.52;;;15.20;;
62580;SDS011;48640;48.770;9.148;2023-03-01T08:32:10;28.27;;;16.35;;
62580;SDS011;48640;48.770;9.148;2023-03-01T08:34:37;30.67;;;18.17;;
62580;SDS011;48640;48.770;9.148;2023-03-01T08:37:04;31.42;;;17.25;;
62580;SDS011;48640;48.770;9.148;2023-03-01T08:39:32;30.05;;;17.13;;
62580;SDS011;48640;48.770;9.148;2023-03-01T08:41:59;31.45;;;16.73;;
62580;SDS011;48640;48.770;9.148;2023-03-01T08:44:26;27.58;;;16.60;;
62580;SDS011;48640;48.770;9.148;2023-03-01T08:46:52;30.48;;;16.77;;
62580;SDS011;48640;48.770;9.148;2023-03-01T08:49:21;25.75;;;15.13;;
62580;SDS011;48640;48.770;9.148;2023-03-01T08:51:48;25.42;;;16.33;;
62580;SDS011;48640;48.770;9.148;2023-03-01T08:54:16;26.02;;;15.85;;
62580;SDS011;48640;48.770;9.148;2023-03-01T08:56:45;27.05;;;16.52;;
62580;SDS011;48640;48.770;9.148;2023-03-01T08:59:13;34.03;;;17.15;;
62580;SDS011;48640;48.770;9.148;2023-03-01T09:01:42;30.02;;;18.40;;
62580;SDS011;48640;48.770;9.148;2023-03-01T09:04:09;28.77;;;16.08;;
62580;SDS011;48640;48.770;9.148;2023-03-01T09:06:36;36.47;;;16.98;;
62580;SDS011;48640;48.770;9.148;2023-03-01T09:09:03;30.98;;;17.67;;
62580;SDS011;48640;48.770;9.148;2023-03-01T09:11:31;29.15;;;15.88;;
62580;SDS011;48640;48.770;9.148;2023-03-01T09:13:59;30.38;;;17.02;;
62580;SDS011;48640;48.770;9.148;2023-03-01T09:16:26;32.97;;;16.90;;
62580;SDS011;48640;48.770;9.148;2023-03-01T09:18:54;28.48;;;15.98;;
62580;SDS011;48640;48.770;9.148;2023-03-01T09:21:22;28.50;;;16.67;;
62580;SDS011;48640;48.770;9.148;2023-03-01T09:23:49;30.75;;;17.13;;
62580;SDS011;48640;48.770;9.148;2023-03-01T09:26:17;24.52;;;15.57;;
62580;SDS011;48640;48.770;9.148;2023-03-01T09:28:46;31.75;;;17.25;;
62580;SDS011;48640;48.770;9.148;2023-03-01T09:31:16;28.73;;;16.80;;
62580;SDS011;48640;48.770;9.148;2023-03-01T09:36:12;26.42;;;15.48;;
62580;SDS011;48640;48.770;9.148;2023-03-01T09:38:40;28.00;;;15.15;;
62580;SDS011;48640;48.770;9.148;2023-03-01T09:41:09;30.02;;;16.15;;
62580;SDS011;48640;48.770;9.148;2023-03-01T09:43:45;27.85;;;16.05;;
62580;SDS011;48640;48.770;9.148;2023-03-01T09:46:20;27.90;;;15.43;;
62580;SDS011;48640;48.770;9.148;2023-03-01T09:48:50;31.13;;;17.63;;
62580;SDS011;48640;48.770;9.148;2023-03-01T09:51:22;29.30;;;16.80;;
62580;SDS011;48640;48.770;9.148;2023-03-01T09:53:52;29.15;;;16.90;;
62580;SDS011;48640;48.770;9.148;2023-03-01T09:56:22;29.50;;;17.15;;
62580;SDS011;48640;48.770;9.148;2023-03-01T09:58:56;32.03;;;17.42;;
62580;SDS011;48640;48.770;9.148;2023-03-01T10:01:29;26.98;;;16.15;;
62580;SDS011;48640;48.770;9.148;2023-03-01T10:04:02;27.27;;;16.00;;
62580;SDS011;48640;48.770;9.148;2023-03-01T10:06:37;26.85;;;15.98;;
62580;SDS011;48640;48.770;9.148;2023-03-01T10:09:06;25.70;;;15.60;;
62580;SDS011;48640;48.770;9.148;2023-03-01T10:11:39;24.65;;;15.43;;
62580;SDS011;48640;48.770;9.148;2023-03-01T10:14:13;26.00;;;15.73;;
62580;SDS011;48640;48.770;9.148;2023-03-01T10:16:52;29.60;;;17.45;;
62580;SDS011;48640;48.770;9.148;2023-03-01T10:19:24;26.10;;;15.55;;
62580;SDS011;48640;48.770;9.148;2023-03-01T10:21:57;24.73;;;14.25;;
62580;SDS011;48640;48.770;9.148;2023-03-01T10:24:28;22.67;;;14.73;;
62580;SDS011;48640;48.770;9.148;2023-03-01T10:27:01;22.35;;;14.63;;
62580;SDS011;48640;48.770;9.148;2023-03-01T10:29:34;24.92;;;16.00;;
62580;SDS011;48640;48.770;9.148;2023-03-01T10:32:11;22.58;;;14.23;;
62580;SDS011;48640;48.770;9.148;2023-03-01T10:34:38;29.00;;;17.35;;
62580;SDS011;48640;48.770;9.148;2023-03-01T10:37:09;22.90;;;14.77;;
62580;SDS011;48640;48.770;9.148;2023-03-01T10:39:54;21.92;;;16.17;;
62580;SDS011;48640;48.770;9.148;2023-03-01T10:42:22;22.60;;;15.80;;
62580;SDS011;48640;48.770;9.148;2023-03-01T10:44:53;24.35;;;15.30;;
62580;SDS011;48640;48.770;9.148;2023-03-01T10:47:22;22.73;;;16.00;;
62580;SDS011;48640;48.770;9.148;2023-03-01T10:49:51;20.25;;;14.70;;
62580;SDS011;48640;48.770;9.148;2023-03-01T10:52:20;22.33;;;14.63;;
62580;SDS011;48640;48.770;9.148;2023-03-01T10:54:52;19.73;;;13.95;;
62580;SDS011;48640;48.770;9.148;2023-03-01T10:57:24;19.90;;;14.27;;
62580;SDS011;48640;48.770;9.148;2023-03-01T11:00:03;22.35;;;15.02;;
62580;SDS011;48640;48.770;9.148;2023-03-01T11:02:49;18.15;;;13.88;;
62580;SDS011;48640;48.770;9.148;2023-03-01T11:07:50;21.00;;;14.80;;
62580;SDS011;48640;48.770;9.148;2023-03-01T11:10:20;19.63;;;14.68;;
62580;SDS011;48640;48.770;9.148;2023-03-01T11:12:50;21.73;;;15.27;;
62580;SDS011;48640;48.770;9.148;2023-03-01T11:15:22;23.02;;;15.07;;
62580;SDS011;48640;48.770;9.148;2023-03-01T11:17:53;22.17;;;15.20;;
62580;SDS011;48640;48.770;9.148;2023-03-01T11:20:24;19.30;;;14.07;;
62580;SDS011;48640;48.770;9.148;2023-03-01T11:22:53;21.35;;;13.40;;
62580;SDS011;48640;48.770;9.148;2023-03-01T11:25:23;19.50;;;13.77;;
62580;SDS011;48640;48.770;9.148;2023-03-01T11:27:52;22.77;;;15.27;;
62580;SDS011;48640;48.770;9.148;2023-03-01T11:30:20;21.02;;;14.15;;
62580;SDS011;48640;48.770;9.148;2023-03-01T11:35:31;19.15;;;14.13;;
62580;SDS011;48640;48.770;9.148;2023-03-01T11:38:04;21.70;;;13.75;;
62580;SDS011;48640;48.770;9.148;2023-03-01T11:40:42;23.63;;;16.20;;
62580;SDS011;48640;48.770;9.148;2023-03-01T11:43:15;21.77;;;15.73;;
62580;SDS011;48640;48.770;9.148;2023-03-01T11:45:52;20.73;;;13.77;;
62580;SDS011;48640;48.770;9.148;2023-03-01T11:48:39;23.80;;;16.15;;
62580;SDS011;48640;48.770;9.148;2023-03-01T11:51:15;18.58;;;14.68;;
62580;SDS011;48640;48.770;9.148;2023-03-01T11:53:51;21.55;;;15.27;;
62580;SDS011;48640;48.770;9.148;2023-03-01T11:56:26;25.40;;;15.27;;
62580;SDS011;48640;48.770;9.148;2023-03-01T11:59:11;22.88;;;15.07;;
62580;SDS011;48640;48.770;9.148;2023-03-01T12:01:51;19.60;;;14.18;;
62580;SDS011;48640;48.770;9.148;2023-03-01T12:07:30;19.30;;;14.65;;
62580;SDS011;48640;48.770;9.148;2023-03-01T12:10:12;19.33;;;14.40;;
62580;SDS011;48640;48.770;9.148;2023-03-01T12:12:49;19.92;;;15.15;;
62580;SDS011;48640;48.770;9.148;2023-03-01T12:15:34;19.35;;;14.90;;
62580;SDS011;48640;48.770;9.148;2023-03-01T12:18:12;20.25;;;15.35;;
62580;SDS011;48640;48.770;9.148;2023-03-01T12:21:12;19.85;;;14.48;;
62580;SDS011;48640;48.770;9.148;2023-03-01T12:23:52;19.50;;;14.65;;
62580;SDS011;48640;48.770;9.148;2023-03-01T12:26:54;19.23;;;14.52;;
62580;SDS011;48640;48.770;9.148;2023-03-01T12:29:34;20.80;;;13.73;;
62580;SDS011;48640;48.770;9.148;2023-03-01T12:32:20;19.25;;;13.57;;
62580;SDS011;48640;48.770;9.148;2023-03-01T12:38:08;22.08;;;15.02;;
62580;SDS011;48640;48.770;9.148;2023-03-01T12:43:44;19.90;;;13.30;;
62580;SDS011;48640;48.770;9.148;2023-03-01T12:46:29;18.17;;;12.88;;
62580;SDS011;48640;48.770;9.148;2023-03-01T12:49:08;19.60;;;13.68;;
62580;SDS011;48640;48.770;9.148;2023-03-01T12:51:37;17.98;;;12.57;;
62580;SDS011;48640;48.770;9.148;2023-03-01T12:54:09;20.60;;;13.90;;
62580;SDS011;48640;48.770;9.148;2023-03-01T12:56:41;19.92;;;13.57;;
62580;SDS011;48640;48.770;9.148;2023-03-01T12:59:11;19.08;;;12.88;;
62580;SDS011;48640;48.770;9.148;2023-03-01T13:01:45;17.45;;;12.00;;
62580;SDS011;48640;48.770;9.148;2023-03-01T13:04:19;17.10;;;12.52;;
62580;SDS011;48640;48.770;9.148;2023-03-01T13:06:55;19.08;;;12.80;;
62580;SDS011;48640;48.770;9.148;2023-03-01T13:09:34;21.45;;;12.65;;
62580;SDS011;48640;48.770;9.148;2023-03-01T13:15:24;18.85;;;13.02;;
62580;SDS011;48640;48.770;9.148;2023-03-01T13:17:56;17.42;;;12.60;;
62580;SDS011;48640;48.770;9.148;2023-03-01T13:20:25;20.05;;;12.38;;
62580;SDS011;48640;48.770;9.148;2023-03-01T13:23:09;17.10;;;12.23;;
62580;SDS011;48640;48.770;9.148;2023-03-01T13:28:38;18.75;;;12.32;;
62580;SDS011;48640;48.770;9.148;2023-03-01T13:31:07;20.55;;;11.88;;
62580;SDS011;48640;48.770;9.148;2023-03-01T13:33:42;18.42;;;11.50;;
62580;SDS011;48640;48.770;9.148;2023-03-01T13:36:10;21.63;;;12.95;;
62580;SDS011;48640;48.770;9.148;2023-03-01T13:38:59;20.85;;;12.57;;
62580;SDS011;48640;48.770;9.148;2023-03-01T13:44:20;19.45;;;13.32;;
62580;SDS011;48640;48.770;9.148;2023-03-01T13:46:51;18.90;;;13.05;;
62580;SDS011;48640;48.770;9.148;2023-03-01T13:49:20;17.33;;;12.60;;
62580;SDS011;48640;48.770;9.148;2023-03-01T13:51:49;17.67;;;12.70;;
62580;SDS011;48640;48.770;9.148;2023-03-01T13:54:18;19.23;;;12.80;;
62580;SDS011;48640;48.770;9.148;2023-03-01T13:56:53;18.80;;;13.35;;
62580;SDS011;48640;48.770;9.148;2023-03-01T13:59:22;21.27;;;14.68;;
62580;SDS011;48640;48.770;9.148;2023-03-01T14:01:55;22.52;;;15.88;;
62580;SDS011;48640;48.770;9.148;2023-03-01T14:04:23;21.75;;;16.33;;
62580;SDS011;48640;48.770;9.148;2023-03-01T14:06:52;22.75;;;15.15;;
62580;SDS011;48640;48.770;9.148;2023-03-01T14:09:36;23.27;;;14.52;;
62580;SDS011;48640;48.770;9.148;2023-03-01T14:12:22;20.33;;;14.48;;
62580;SDS011;48640;48.770;9.148;2023-03-01T14:14:56;20.98;;;14.23;;
62580;SDS011;48640;48.770;9.148;2023-03-01T14:20:19;20.50;;;14.38;;
62580;SDS011;48640;48.770;9.148;2023-03-01T14:22:48;24.98;;;14.25;;
62580;SDS011;48640;48.770;9.148;2023-03-01T14:25:22;22.02;;;14.95;;
62580;SDS011;48640;48.770;9.148;2023-03-01T14:27:54;25.83;;;16.67;;
62580;SDS011;48640;48.770;9.148;2023-03-01T14:30:23;23.38;;;14.73;;
62580;SDS011;48640;48.770;9.148;2023-03-01T14:32:52;22.45;;;14.63;;
62580;SDS011;48640;48.770;9.148;2023-03-01T14:35:20;19.40;;;15.23;;
62580;SDS011;48640;48.770;9.148;2023-03-01T14:37:49;23.98;;;15.43;;
62580;SDS011;48640;48.770;9.148;2023-03-01T14:40:23;25.13;;;15.80;;
62580;SDS011;48640;48.770;9.148;2023-03-01T14:42:53;21.45;;;14.32;;
62580;SDS011;48640;48.770;9.148;2023-03-01T14:45:24;23.65;;;15.60;;
62580;SDS011;48640;48.770;9.148;2023-03-01T14:47:52;24.40;;;16.45;;
62580;SDS011;48640;48.770;9.148;2023-03-01T14:50:24;22.33;;;14.00;;
62580;SDS011;48640;48.770;9.148;2023-03-01T14:52:54;23.40;;;15.38;;
62580;SDS011;48640;48.770;9.148;2023-03-01T14:55:25;22.45;;;15.15;;
62580;SDS011;48640;48.770;9.148;2023-03-01T14:57:56;23.73;;;15.18;;
62580;SDS011;48640;48.770;9.148;2023-03-01T15:00:24;19.08;;;13.55;;
62580;SDS011;48640;48.770;9.148;2023-03-01T15:02:53;24.30;;;14.60;;
62580;SDS011;48640;48.770;9.148;2023-03-01T15:05:23;24.27;;;16.02;;
62580;SDS011;48640;48.770;9.148;2023-03-01T15:07:53;22.63;;;15.07;;
62580;SDS011;48640;48.770;9.148;2023-03-01T15:10:22;24.45;;;15.95;;
62580;SDS011;48640;48.770;9.148;2023-03-01T15:12:51;21.45;;;14.50;;
62580;SDS011;48640;48.770;9.148;2023-03-01T15:15:21;22.90;;;16.05;;
62580;SDS011;48640;48.770;9.148;2023-03-01T15:18:05;23.25;;;15.35;;